createdAt,value
2023-10-02T00:01:19.714Z,17.25
2023-10-02T00:04:25.924Z,15.50
2023-10-02T00:07:31.220Z,20.50
2023-10-02T00:10:33.697Z,19.50
2023-10-02T00:13:36.749Z,17.00
2023-10-02T00:16:39.217Z,21.00
2023-10-02T00:19:48.600Z,17.00
2023-10-02T00:22:52.410Z,17.75
2023-10-02T00:26:05.425Z,21.00
2023-10-02T00:29:11.355Z,17.75
2023-10-02T00:32:14.187Z,17.50
2023-10-02T00:35:16.961Z,21.25
2023-10-02T00:38:19.862Z,18.00
2023-10-02T00:41:23.324Z,25.00
2023-10-02T00:44:42.672Z,16.25
2023-10-02T00:47:48.698Z,21.25
2023-10-02T00:51:00.461Z,21.00
2023-10-02T00:54:22.972Z,21.25
2023-10-02T00:57:28.616Z,21.50
2023-10-02T01:00:37.919Z,21.75
2023-10-02T01:04:01.202Z,17.25
2023-10-02T01:07:13.192Z,17.25
2023-10-02T01:10:22.038Z,24.75
2023-10-02T01:13:39.539Z,25.50
2023-10-02T01:16:52.579Z,24.50
2023-10-02T01:19:57.625Z,25.75
2023-10-02T01:23:17.708Z,16.50
2023-10-02T01:26:20.570Z,18.50
2023-10-02T01:29:24.269Z,27.25
2023-10-02T01:32:27.562Z,22.00
2023-10-02T01:35:30.555Z,27.50
2023-10-02T01:38:35.499Z,22.75
2023-10-02T01:41:39.291Z,30.50
2023-10-02T01:44:56.796Z,30.00
2023-10-02T01:48:00.325Z,18.00
2023-10-02T01:51:17.372Z,20.25
2023-10-02T01:54:23.753Z,22.75
2023-10-02T01:57:26.447Z,22.50
2023-10-02T02:00:29.516Z,26.50
2023-10-02T02:03:32.141Z,22.50
2023-10-02T02:06:35.875Z,18.75
2023-10-02T02:09:44.432Z,22.00
2023-10-02T02:12:56.784Z,23.75
2023-10-02T02:16:09.188Z,28.75
2023-10-02T02:19:13.729Z,29.00
2023-10-02T02:22:18.029Z,20.00
2023-10-02T02:25:29.093Z,17.75
2023-10-02T02:28:31.528Z,23.50
2023-10-02T02:31:34.789Z,23.00
2023-10-02T02:34:38.329Z,23.00
2023-10-02T02:37:43.285Z,29.00
2023-10-02T02:40:45.815Z,28.00
2023-10-02T02:43:49.345Z,26.25
2023-10-02T02:46:55.442Z,25.75
2023-10-02T02:50:01.273Z,25.50
2023-10-02T02:53:24.474Z,26.25
2023-10-02T02:56:29.611Z,27.50
2023-10-02T02:59:32.391Z,19.00
2023-10-02T03:02:35.271Z,22.25
2023-10-02T03:05:42.692Z,23.25
2023-10-02T03:08:47.318Z,28.00
2023-10-02T03:11:52.236Z,24.00
2023-10-02T03:14:56.691Z,25.25
2023-10-02T03:18:00.557Z,24.50
2023-10-02T03:21:23.630Z,21.00
2023-10-02T03:24:26.163Z,24.50
2023-10-02T03:27:28.934Z,25.50
2023-10-02T03:30:45.077Z,26.00
2023-10-02T03:33:47.863Z,24.25
2023-10-02T03:36:54.709Z,30.50
2023-10-02T03:40:00.469Z,24.75
2023-10-02T03:43:20.594Z,26.25
2023-10-02T03:46:37.276Z,25.25
2023-10-02T03:49:42.572Z,23.75
2023-10-02T03:53:05.257Z,21.75
2023-10-02T03:56:26.607Z,21.00
2023-10-02T03:59:33.325Z,25.75
2023-10-02T04:02:38.374Z,21.00
2023-10-02T04:05:44.837Z,22.00
2023-10-02T04:08:47.364Z,24.50
2023-10-02T04:11:52.059Z,23.00
2023-10-02T04:14:55.557Z,19.50
2023-10-02T04:17:59.062Z,23.00
2023-10-02T04:21:08.035Z,19.00
2023-10-02T04:24:13.641Z,22.00
2023-10-02T04:27:20.018Z,22.75
2023-10-02T04:30:26.581Z,21.00
2023-10-02T04:33:38.401Z,17.00
2023-10-02T04:36:44.972Z,19.00
2023-10-02T04:39:57.398Z,19.75
2023-10-02T04:43:10.811Z,23.00
2023-10-02T04:46:16.066Z,25.75
2023-10-02T04:49:19.021Z,13.50
2023-10-02T04:52:36.143Z,19.50
2023-10-02T04:55:45.286Z,21.75
2023-10-02T04:58:59.305Z,20.00
2023-10-02T05:02:23.762Z,22.25
2023-10-02T05:05:32.040Z,17.25
2023-10-02T05:08:42.646Z,24.25
2023-10-02T05:11:58.980Z,21.00
2023-10-02T05:15:08.736Z,21.00
2023-10-02T05:18:18.348Z,24.25
2023-10-02T05:21:37.560Z,23.75
2023-10-02T05:24:43.088Z,19.25
2023-10-02T05:27:48.829Z,17.25
2023-10-02T05:30:51.349Z,21.00
2023-10-02T05:33:58.829Z,26.00
2023-10-02T05:37:14.223Z,26.00
2023-10-02T05:40:21.735Z,24.25
2023-10-02T05:43:26.682Z,26.50
2023-10-02T05:46:49.832Z,23.25
2023-10-02T05:49:55.085Z,29.00
2023-10-02T05:52:58.943Z,27.00
2023-10-02T05:56:08.317Z,31.25
2023-10-02T05:59:12.077Z,34.00
2023-10-02T06:02:16.313Z,29.00
2023-10-02T06:05:19.862Z,32.50
2023-10-02T06:08:25.046Z,30.25
2023-10-02T06:11:29.864Z,34.50
2023-10-02T06:14:40.864Z,38.25
2023-10-02T06:17:45.277Z,36.25
2023-10-02T06:21:02.579Z,38.25
2023-10-02T06:24:06.317Z,35.50
2023-10-02T06:27:15.502Z,37.00
2023-10-02T06:30:18.512Z,36.00
2023-10-02T06:33:23.231Z,39.00
2023-10-02T06:36:26.389Z,28.00
2023-10-02T06:39:30.607Z,29.50
2023-10-02T06:42:35.035Z,36.00
2023-10-02T06:45:53.877Z,30.25
2023-10-02T06:48:57.706Z,29.00
2023-10-02T06:52:12.604Z,30.50
2023-10-02T06:55:15.521Z,30.25
2023-10-02T06:58:18.800Z,29.75
2023-10-02T07:01:22.012Z,28.00
2023-10-02T07:04:31.292Z,25.50
2023-10-02T07:07:34.264Z,26.75
2023-10-02T07:10:43.714Z,28.00
2023-10-02T07:13:53.013Z,28.00
2023-10-02T07:17:13.320Z,31.25
2023-10-02T07:20:17.159Z,29.25
2023-10-02T07:23:24.853Z,27.25
2023-10-02T07:26:46.182Z,27.50
2023-10-02T07:29:48.844Z,30.00
2023-10-02T07:32:53.377Z,31.75
2023-10-02T07:35:56.198Z,31.00
2023-10-02T07:39:02.172Z,30.00
2023-10-02T07:42:11.720Z,23.25
2023-10-02T07:45:26.019Z,23.50
2023-10-02T07:48:32.274Z,25.75
2023-10-02T07:51:38.474Z,21.00
2023-10-02T07:54:46.917Z,26.75
2023-10-02T07:57:59.565Z,25.00
2023-10-02T08:01:12.715Z,23.00
2023-10-02T08:04:15.868Z,19.75
2023-10-02T08:07:27.516Z,21.75
2023-10-02T08:10:51.051Z,21.00
2023-10-02T08:13:54.495Z,21.25
2023-10-02T08:17:00.820Z,23.00
2023-10-02T08:20:21.829Z,22.75
2023-10-02T08:23:25.314Z,19.25
2023-10-02T08:26:32.281Z,18.50
2023-10-02T08:29:38.095Z,15.75
2023-10-02T08:32:41.073Z,14.00
2023-10-02T08:35:48.309Z,13.00
2023-10-02T08:38:55.133Z,12.50
2023-10-02T08:42:11.297Z,15.25
2023-10-02T08:45:21.995Z,13.50
2023-10-02T08:48:26.730Z,12.75
2023-10-02T08:51:37.739Z,17.00
2023-10-02T08:54:42.681Z,18.00
2023-10-02T08:58:10.523Z,15.00
2023-10-02T09:01:22.414Z,12.50
2023-10-02T09:04:28.264Z,12.75
2023-10-02T09:07:52.337Z,15.25
2023-10-02T09:11:00.131Z,18.50
2023-10-02T09:14:27.660Z,14.50
2023-10-02T09:17:45.919Z,14.50
2023-10-02T09:20:56.004Z,14.50
2023-10-02T09:24:03.341Z,10.75
2023-10-02T09:27:32.435Z,11.50
2023-10-02T09:30:34.955Z,10.00
2023-10-02T09:33:50.976Z,10.00
2023-10-02T09:37:56.144Z,9.67
2023-10-02T09:41:17.210Z,13.50
2023-10-02T09:44:28.905Z,13.67
2023-10-02T09:47:32.050Z,8.67
2023-10-02T09:50:42.650Z,8.67
2023-10-02T09:54:06.420Z,9.00
2023-10-02T09:57:17.665Z,6.67
2023-10-02T10:00:38.891Z,9.00
2023-10-02T10:03:51.292Z,8.67
2023-10-02T10:07:25.254Z,8.00
2023-10-02T10:10:30.507Z,8.33
2023-10-02T10:13:48.181Z,8.00
2023-10-02T10:16:51.872Z,7.00
2023-10-02T10:20:10.995Z,7.00
2023-10-02T10:23:33.368Z,8.33
2023-10-02T10:26:46.272Z,8.00
2023-10-02T10:30:09.867Z,9.00
2023-10-02T10:33:12.971Z,7.00
2023-10-02T10:36:39.194Z,12.00
2023-10-02T10:40:01.440Z,10.00
2023-10-02T10:43:07.171Z,11.00
2023-10-02T10:46:14.235Z,8.33
2023-10-02T10:49:25.698Z,9.00
2023-10-02T10:52:37.800Z,7.67
2023-10-02T10:55:41.715Z,9.33
2023-10-02T10:58:45.533Z,9.33
2023-10-02T11:02:14.082Z,9.00
2023-10-02T11:05:21.702Z,7.67
2023-10-02T11:08:30.381Z,9.67
2023-10-02T11:11:49.756Z,10.67
2023-10-02T11:14:53.461Z,7.00
2023-10-02T11:18:23.066Z,9.00
2023-10-02T11:21:26.262Z,8.33
2023-10-02T11:24:29.210Z,7.00
2023-10-02T11:27:36.145Z,9.67
2023-10-02T11:30:38.875Z,5.33
2023-10-02T11:33:42.333Z,8.00
2023-10-02T11:36:54.358Z,5.67
2023-10-02T11:39:57.970Z,6.67
2023-10-02T11:43:03.464Z,7.33
2023-10-02T11:46:08.559Z,6.33
2023-10-02T11:49:14.863Z,9.33
2023-10-02T11:52:20.691Z,7.00
2023-10-02T11:55:25.518Z,8.00
2023-10-02T11:58:29.757Z,7.00
2023-10-02T12:01:32.377Z,8.67
2023-10-02T12:04:35.522Z,10.33
2023-10-02T12:07:40.357Z,10.67
2023-10-02T12:10:43.478Z,7.33
2023-10-02T12:13:46.182Z,7.00
2023-10-02T12:16:49.329Z,8.00
2023-10-02T12:19:53.309Z,8.00
2023-10-02T12:22:56.341Z,8.33
2023-10-02T12:26:00.403Z,9.00
2023-10-02T12:29:04.211Z,6.00
2023-10-02T12:32:07.209Z,7.00
2023-10-02T12:35:10.613Z,8.00
2023-10-02T12:38:15.425Z,7.67
2023-10-02T12:41:26.128Z,5.33
2023-10-02T12:44:32.533Z,7.33
2023-10-02T12:47:38.576Z,7.67
2023-10-02T12:50:41.413Z,8.00
2023-10-02T12:53:45.225Z,7.67
2023-10-02T12:56:47.750Z,9.33
2023-10-02T12:59:50.821Z,7.33
2023-10-02T13:02:53.670Z,8.33
2023-10-02T13:05:59.564Z,8.67
2023-10-02T13:09:17.666Z,4.00
2023-10-02T13:12:21.010Z,7.00
2023-10-02T13:15:25.828Z,10.00
2023-10-02T13:18:28.958Z,10.00
2023-10-02T13:21:49.911Z,7.67
2023-10-02T13:24:53.082Z,8.33
2023-10-02T13:27:55.767Z,9.00
2023-10-02T13:30:58.613Z,6.33
2023-10-02T13:34:04.562Z,8.33
2023-10-02T13:37:07.378Z,7.00
2023-10-02T13:40:33.225Z,6.33
2023-10-02T13:43:38.907Z,7.67
2023-10-02T13:46:43.398Z,5.67
2023-10-02T13:49:46.680Z,7.00
2023-10-02T13:52:54.462Z,6.00
2023-10-02T13:56:05.153Z,6.00
2023-10-02T13:59:07.757Z,9.33
2023-10-02T14:02:13.190Z,4.33
2023-10-02T14:05:16.906Z,6.00
2023-10-02T14:08:21.185Z,8.33
2023-10-02T14:11:25.203Z,6.00
2023-10-02T14:14:28.249Z,6.67
2023-10-02T14:17:35.425Z,6.00
2023-10-02T14:20:40.419Z,6.67
2023-10-02T14:23:45.026Z,6.00
2023-10-02T14:26:48.019Z,6.00
2023-10-02T14:29:50.610Z,6.00
2023-10-02T14:32:54.187Z,5.33
2023-10-02T14:35:57.829Z,4.67
2023-10-02T14:39:00.734Z,6.33
2023-10-02T14:42:05.806Z,7.00
2023-10-02T14:45:11.043Z,6.67
2023-10-02T14:51:27.343Z,4.00
2023-10-02T14:54:29.846Z,4.33
2023-10-02T14:57:32.627Z,6.33
2023-10-02T15:00:36.097Z,4.33
2023-10-02T15:03:41.520Z,5.33
2023-10-02T15:06:44.707Z,6.33
2023-10-02T15:09:47.665Z,5.00
2023-10-02T15:12:54.234Z,4.33
2023-10-02T15:15:58.781Z,6.00
2023-10-02T15:19:02.545Z,7.33
2023-10-02T15:22:05.554Z,6.00
2023-10-02T15:25:09.303Z,5.33
2023-10-02T15:28:12.079Z,5.00
2023-10-02T15:31:15.673Z,5.33
2023-10-02T15:34:20.133Z,7.00
2023-10-02T15:37:22.918Z,6.00
2023-10-02T15:40:26.220Z,6.00
2023-10-02T15:43:30.538Z,7.00
2023-10-02T15:46:34.804Z,7.00
2023-10-02T15:49:39.493Z,5.00
2023-10-02T15:52:44.440Z,8.00
2023-10-02T15:55:47.745Z,5.00
2023-10-02T15:58:50.807Z,5.67
2023-10-02T16:01:54.563Z,5.00
2023-10-02T16:04:58.246Z,6.00
2023-10-02T16:08:01.677Z,4.00
2023-10-02T16:11:05.307Z,8.00
2023-10-02T16:14:07.948Z,7.00
2023-10-02T16:17:11.573Z,8.67
2023-10-02T16:20:15.753Z,6.00
2023-10-02T16:23:19.255Z,6.00
2023-10-02T16:26:24.309Z,6.00
2023-10-02T16:29:27.840Z,5.00
2023-10-02T16:32:31.270Z,4.33
2023-10-02T16:35:36.601Z,6.00
2023-10-02T16:38:48.740Z,4.33
2023-10-02T16:41:59.069Z,5.67
2023-10-02T16:45:02.033Z,7.33
2023-10-02T16:48:07.149Z,6.67
2023-10-02T16:51:13.971Z,9.00
2023-10-02T16:54:16.783Z,8.00
2023-10-02T16:57:19.278Z,8.00
2023-10-02T17:00:23.852Z,7.33
2023-10-02T17:03:27.851Z,6.00
2023-10-02T17:06:32.399Z,7.00
2023-10-02T17:09:34.938Z,7.00
2023-10-02T17:12:37.837Z,8.67
2023-10-02T17:15:40.956Z,6.00
2023-10-02T17:18:44.433Z,8.33
2023-10-02T17:21:48.002Z,7.00
2023-10-02T17:24:51.674Z,8.33
2023-10-02T17:28:00.796Z,6.00
2023-10-02T17:31:05.089Z,9.00
2023-10-02T17:34:11.199Z,6.67
2023-10-02T17:37:16.150Z,5.33
2023-10-02T17:40:23.725Z,7.00
2023-10-02T17:43:30.809Z,6.00
2023-10-02T17:46:36.071Z,5.67
2023-10-02T17:49:47.304Z,6.33
2023-10-02T17:52:51.371Z,8.33
2023-10-02T17:55:55.520Z,8.67
2023-10-02T17:59:00.037Z,7.33
2023-10-02T18:02:06.897Z,8.00
2023-10-02T18:05:11.915Z,9.00
2023-10-02T18:08:18.874Z,7.00
2023-10-02T18:11:27.500Z,10.00
2023-10-02T18:14:37.511Z,10.00
2023-10-02T18:17:48.766Z,12.25
2023-10-02T18:20:52.924Z,9.25
2023-10-02T18:23:58.466Z,9.00
2023-10-02T18:27:03.230Z,9.33
2023-10-02T18:30:11.220Z,8.50
2023-10-02T18:33:21.884Z,9.25
2023-10-02T18:36:26.697Z,8.00
2023-10-02T18:39:31.488Z,9.25
2023-10-02T18:42:36.833Z,8.50
2023-10-02T18:45:41.114Z,10.25
2023-10-02T18:48:46.631Z,8.00
2023-10-02T18:51:51.822Z,10.25
2023-10-02T18:54:55.914Z,11.50
2023-10-02T18:58:00.220Z,12.25
2023-10-02T19:01:18.651Z,7.00
2023-10-02T19:04:23.596Z,9.75
2023-10-02T19:07:28.570Z,9.50
2023-10-02T19:10:35.747Z,9.00
2023-10-02T19:13:40.857Z,9.00
2023-10-02T19:16:46.244Z,8.50
2023-10-02T19:19:51.348Z,12.00
2023-10-02T19:22:58.139Z,8.00
2023-10-02T19:26:02.479Z,8.50
2023-10-02T19:29:07.166Z,9.75
2023-10-02T19:32:12.995Z,12.00
2023-10-02T19:35:17.188Z,13.25
2023-10-02T19:38:22.584Z,12.25
2023-10-02T19:41:27.795Z,10.50
2023-10-02T19:44:32.801Z,9.75
2023-10-02T19:47:36.849Z,13.75
2023-10-02T19:50:40.652Z,8.75
2023-10-02T19:53:45.962Z,15.50
2023-10-02T19:56:51.232Z,12.75
2023-10-02T19:59:54.922Z,12.00
2023-10-02T20:02:58.458Z,10.75
2023-10-02T20:06:12.266Z,12.25
2023-10-02T20:09:17.664Z,12.75
2023-10-02T20:12:23.329Z,11.75
2023-10-02T20:15:28.947Z,10.50
2023-10-02T20:18:33.207Z,11.00
2023-10-02T20:21:38.862Z,12.25
2023-10-02T20:24:42.312Z,13.75
2023-10-02T20:27:48.890Z,14.00
2023-10-02T20:30:52.371Z,10.75
2023-10-02T20:33:57.427Z,11.25
2023-10-02T20:37:02.374Z,20.50
2023-10-02T20:40:08.407Z,13.75
2023-10-02T20:43:13.523Z,13.00
2023-10-02T20:46:16.346Z,16.25
2023-10-02T20:49:19.411Z,17.25
2023-10-02T20:52:22.079Z,14.25
2023-10-02T20:55:27.618Z,16.25
2023-10-02T20:58:30.484Z,20.00
2023-10-02T21:01:33.746Z,15.25
2023-10-02T21:04:36.798Z,15.00
2023-10-02T21:07:43.062Z,15.75
2023-10-02T21:10:45.674Z,13.50
2023-10-02T21:13:49.989Z,20.25
2023-10-02T21:16:52.784Z,21.00
2023-10-02T21:19:57.489Z,15.25
2023-10-02T21:23:00.055Z,14.50
2023-10-02T21:26:06.169Z,16.00
2023-10-02T21:29:08.646Z,14.75
2023-10-02T21:32:11.694Z,16.75
2023-10-02T21:35:14.260Z,18.75
2023-10-02T21:38:17.031Z,14.50
2023-10-02T21:41:20.647Z,15.75
2023-10-02T21:44:23.661Z,14.50
2023-10-02T21:47:26.290Z,14.50
2023-10-02T21:50:29.851Z,17.00
2023-10-02T21:53:35.793Z,16.00
2023-10-02T21:56:38.804Z,16.25
2023-10-02T21:59:41.447Z,13.25
2023-10-02T22:02:44.779Z,16.25
2023-10-02T22:05:48.098Z,14.25
2023-10-02T22:08:53.898Z,14.75
2023-10-02T22:11:56.513Z,15.50
2023-10-02T22:15:01.423Z,17.75
2023-10-02T22:18:05.509Z,16.75
2023-10-02T22:21:21.739Z,14.75
2023-10-02T22:24:25.785Z,16.50
2023-10-02T22:27:28.522Z,14.75
2023-10-02T22:30:35.068Z,18.50
2023-10-02T22:33:39.408Z,15.00
2023-10-02T22:36:42.272Z,12.50
2023-10-02T22:39:45.140Z,15.00
2023-10-02T22:42:49.991Z,15.75
2023-10-02T22:45:53.010Z,14.50
2023-10-02T22:48:57.241Z,15.00
2023-10-02T22:52:01.481Z,15.25
2023-10-02T22:55:07.512Z,15.50
2023-10-02T22:58:10.577Z,14.50
2023-10-02T23:01:13.826Z,15.00
2023-10-02T23:04:16.974Z,12.50
2023-10-02T23:07:20.065Z,13.50
2023-10-02T23:10:26.240Z,12.50
2023-10-02T23:13:29.259Z,17.50
2023-10-02T23:16:34.272Z,13.75
2023-10-02T23:19:41.985Z,15.50
2023-10-02T23:22:47.282Z,13.00
2023-10-02T23:25:50.150Z,13.50
2023-10-02T23:28:53.002Z,17.00
2023-10-02T23:31:55.775Z,13.50
2023-10-02T23:34:58.536Z,14.25
2023-10-02T23:38:01.888Z,18.75
2023-10-02T23:41:05.676Z,10.75
2023-10-02T23:44:13.436Z,14.00
2023-10-02T23:47:17.827Z,15.00
2023-10-02T23:50:20.662Z,13.25
2023-10-02T23:53:27.053Z,12.50
2023-10-02T23:56:30.269Z,14.25
2023-10-02T23:59:34.252Z,14.50
